Time;durP1;ratioP1;P1;durP2;ratioP2;P2;SDS_P1;SDS_P2;PMS_P1;PMS_P2;Temp;Humidity;BMP_temperature;BMP_pressure;BME280_temperature;BME280_humidity;BME280_pressure;Samples;Min_cycle;Max_cycle;Signal;HPM_P1;HPM_P2
2022/11/13 00:02:13;;;;;;;347.98;171.32;;;4.40;99.90;;;;;;5116181;28;20043;-71
2022/11/13 00:04:57;;;;;;;344.05;166.55;;;4.50;99.90;;;;;;5115913;28;20046;-71
2022/11/13 00:07:42;;;;;;;311.50;157.02;;;4.40;99.90;;;;;;5115803;28;20046;-71
2022/11/13 00:10:27;;;;;;;325.25;169.35;;;4.30;99.90;;;;;;5132395;27;20042;-71
2022/11/13 00:13:11;;;;;;;281.63;145.48;;;4.20;99.90;;;;;;5136634;27;20046;-71
2022/11/13 00:16:05;;;;;;;243.30;121.68;;;4.40;99.90;;;;;;5136655;27;20034;-71
2022/11/13 00:18:49;;;;;;;217.93;110.47;;;4.60;99.90;;;;;;5136457;27;20049;-71
2022/11/13 00:21:34;;;;;;;219.15;111.07;;;4.50;99.90;;;;;;5136196;27;20127;-71
2022/11/13 00:24:18;;;;;;;244.20;119.35;;;4.60;99.90;;;;;;5136445;27;20063;-71
2022/11/13 00:27:03;;;;;;;229.85;114.22;;;4.50;99.90;;;;;;5136336;27;20057;-71
2022/11/13 00:29:48;;;;;;;269.73;139.25;;;4.50;99.90;;;;;;5120415;27;20042;-71
2022/11/13 00:32:32;;;;;;;272.17;132.20;;;4.30;99.90;;;;;;5135962;27;20114;-71
2022/11/13 00:35:17;;;;;;;243.95;127.20;;;4.40;99.90;;;;;;5135907;27;20057;-71
2022/11/13 00:38:02;;;;;;;233.35;126.38;;;4.40;99.90;;;;;;5135821;27;20034;-71
2022/11/13 00:40:46;;;;;;;261.67;130.80;;;4.50;99.90;;;;;;5135902;27;20452;-71
2022/11/13 00:43:31;;;;;;;257.75;122.05;;;4.70;99.90;;;;;;5136071;27;20045;-72
2022/11/13 00:46:16;;;;;;;289.70;134.65;;;4.70;99.90;;;;;;5135872;27;20144;-71
2022/11/13 00:49:00;;;;;;;272.58;128.52;;;4.60;99.90;;;;;;5135894;27;20057;-71
2022/11/13 00:51:45;;;;;;;283.55;134.77;;;4.60;99.90;;;;;;5135981;27;20091;-71
2022/11/13 00:54:30;;;;;;;326.05;146.63;;;4.60;99.90;;;;;;5136088;27;20050;-71
2022/11/13 00:57:14;;;;;;;247.45;124.95;;;4.50;99.90;;;;;;5135652;27;20510;-71
2022/11/13 00:59:59;;;;;;;234.70;122.63;;;4.50;99.90;;;;;;5135626;27;20104;-71
2022/11/13 01:02:43;;;;;;;227.45;123.32;;;4.70;99.90;;;;;;5135800;27;20393;-70
2022/11/13 01:05:28;;;;;;;278.00;124.70;;;4.80;99.90;;;;;;5135470;28;20103;-70
2022/11/13 01:08:14;;;;;;;180.27;90.55;;;4.70;99.90;;;;;;5135185;27;20072;-71
2022/11/13 01:10:58;;;;;;;211.95;106.25;;;4.60;99.90;;;;;;5094676;28;20047;-71
2022/11/13 01:13:45;;;;;;;222.10;113.07;;;4.60;99.90;;;;;;5094448;28;20344;-71
2022/11/13 01:16:29;;;;;;;231.02;117.30;;;4.40;99.90;;;;;;5094919;28;20091;-71
2022/11/13 01:19:14;;;;;;;231.13;114.90;;;4.40;99.90;;;;;;5094515;28;20394;-71
2022/11/13 01:21:58;;;;;;;242.82;120.72;;;4.30;99.90;;;;;;5094637;28;20050;-71
2022/11/13 01:24:43;;;;;;;217.68;108.45;;;4.20;99.90;;;;;;5095082;28;20067;-71
2022/11/13 01:27:28;;;;;;;274.50;125.97;;;4.20;99.90;;;;;;5094506;28;20066;-71
2022/11/13 01:30:12;;;;;;;279.33;133.07;;;4.20;99.90;;;;;;5094626;28;20392;-71
2022/11/13 01:32:57;;;;;;;330.95;139.63;;;4.20;99.90;;;;;;5094429;28;20519;-71
2022/11/13 01:35:42;;;;;;;294.35;136.95;;;4.20;99.90;;;;;;5094340;28;20055;-71
2022/11/13 01:38:26;;;;;;;268.25;126.50;;;4.20;99.90;;;;;;5094429;28;20043;-71
2022/11/13 01:41:29;;;;;;;249.52;118.85;;;4.30;99.90;;;;;;5094381;28;20488;-71
2022/11/13 01:44:15;;;;;;;234.93;116.93;;;4.40;99.90;;;;;;5094311;28;20520;-71
2022/11/13 01:47:00;;;;;;;250.27;117.45;;;4.30;99.90;;;;;;5094514;28;20059;-71
2022/11/13 01:49:46;;;;;;;256.38;127.03;;;4.40;99.90;;;;;;5094260;28;20104;-71
2022/11/13 01:52:35;;;;;;;274.17;127.97;;;4.40;99.90;;;;;;5094589;28;20610;-71
2022/11/13 01:55:19;;;;;;;207.00;104.45;;;4.50;99.90;;;;;;5094224;28;20039;-71
2022/11/13 01:58:07;;;;;;;383.80;136.23;;;4.50;99.90;;;;;;5094050;28;20036;-70
2022/11/13 02:00:51;;;;;;;257.45;119.63;;;4.60;99.90;;;;;;5094184;28;20042;-71
2022/11/13 02:03:36;;;;;;;344.80;132.70;;;4.60;99.90;;;;;;5093819;28;20093;-70
2022/11/13 02:06:21;;;;;;;383.67;142.15;;;4.60;99.90;;;;;;5094337;28;20128;-71
2022/11/13 02:09:08;;;;;;;302.90;128.50;;;4.70;99.90;;;;;;5098783;28;20057;-71
2022/11/13 02:11:53;;;;;;;363.73;129.77;;;4.70;99.90;;;;;;5114431;28;20393;-71
2022/11/13 02:14:45;;;;;;;279.05;127.40;;;4.70;99.90;;;;;;5114504;28;20093;-71
2022/11/13 02:17:44;;;;;;;226.35;113.03;;;4.60;99.90;;;;;;5114402;28;20038;-71
2022/11/13 02:20:44;;;;;;;202.70;103.72;;;4.60;99.90;;;;;;5116289;28;20042;-71
2022/11/13 02:23:52;;;;;;;218.85;108.85;;;4.70;99.90;;;;;;5118062;28;20119;-71
2022/11/13 02:26:37;;;;;;;213.55;109.13;;;4.70;99.90;;;;;;5117882;28;20067;-71
2022/11/13 02:29:21;;;;;;;196.82;104.57;;;4.70;99.90;;;;;;5117864;28;20042;-71
2022/11/13 02:32:06;;;;;;;218.40;112.75;;;4.70;99.90;;;;;;5117566;28;20039;-71
2022/11/13 02:34:51;;;;;;;203.75;105.95;;;4.60;99.90;;;;;;5117872;28;20468;-70
2022/11/13 02:37:35;;;;;;;199.18;103.57;;;4.70;99.90;;;;;;5117896;28;20043;-71
2022/11/13 02:40:20;;;;;;;298.95;118.30;;;4.90;99.90;;;;;;5117666;28;20438;-70
2022/11/13 02:43:05;;;;;;;347.77;119.82;;;5.00;99.90;;;;;;5117870;28;20043;-70
2022/11/13 02:45:49;;;;;;;336.20;124.30;;;4.90;99.90;;;;;;5117879;28;20392;-71
2022/11/13 02:48:34;;;;;;;339.25;123.40;;;4.80;99.90;;;;;;5117565;28;20038;-71
2022/11/13 02:51:19;;;;;;;219.77;102.55;;;4.80;99.90;;;;;;5117429;28;20105;-71
2022/11/13 02:54:04;;;;;;;326.45;127.20;;;4.70;99.90;;;;;;5117327;28;20124;-71
2022/11/13 02:56:48;;;;;;;271.30;113.57;;;4.80;99.90;;;;;;5117351;28;20069;-71
2022/11/13 02:59:33;;;;;;;324.55;108.53;;;4.80;99.90;;;;;;5104224;28;20055;-70
2022/11/13 03:02:17;;;;;;;264.85;112.50;;;5.00;99.90;;;;;;5097079;28;20089;-71
2022/11/13 03:05:02;;;;;;;499.27;135.13;;;4.90;99.90;;;;;;5096723;28;20043;-71
2022/11/13 03:07:47;;;;;;;512.63;139.13;;;4.70;99.90;;;;;;5096698;28;20508;-70
2022/11/13 03:10:31;;;;;;;518.95;139.20;;;4.60;99.90;;;;;;5096579;28;20513;-70
2022/11/13 03:13:16;;;;;;;275.58;111.20;;;4.50;99.90;;;;;;5096820;28;20094;-71
2022/11/13 03:16:13;;;;;;;265.27;105.03;;;4.40;99.90;;;;;;5096564;28;20047;-70
2022/11/13 03:18:58;;;;;;;436.73;128.45;;;4.60;99.90;;;;;;5096373;28;20035;-70
2022/11/13 03:21:43;;;;;;;420.25;124.47;;;4.50;99.90;;;;;;5096699;28;20043;-71
2022/11/13 03:24:27;;;;;;;429.80;129.02;;;4.50;99.90;;;;;;5115418;28;20066;-71
2022/11/13 03:27:11;;;;;;;318.48;105.43;;;4.40;99.90;;;;;;5116868;28;20046;-70
2022/11/13 03:29:56;;;;;;;307.45;92.28;;;4.30;99.90;;;;;;5116708;28;20088;-71
2022/11/13 03:32:41;;;;;;;415.88;107.90;;;4.50;99.90;;;;;;5116592;28;20043;-71
2022/11/13 03:35:26;;;;;;;250.45;92.60;;;4.40;99.90;;;;;;5116434;28;20046;-70
2022/11/13 03:38:10;;;;;;;224.27;83.20;;;4.50;99.90;;;;;;5116664;28;20499;-70
2022/11/13 03:40:55;;;;;;;217.15;85.85;;;4.60;99.90;;;;;;5116449;28;20066;-71
2022/11/13 03:43:40;;;;;;;292.17;94.18;;;4.70;99.90;;;;;;5116551;28;20078;-70
2022/11/13 03:46:24;;;;;;;320.08;93.97;;;4.50;99.90;;;;;;5116503;28;20038;-71
2022/11/13 03:49:09;;;;;;;152.80;73.28;;;4.40;99.90;;;;;;5116053;28;20513;-71
2022/11/13 03:51:54;;;;;;;173.90;81.60;;;4.50;99.90;;;;;;5116383;28;20046;-71
2022/11/13 03:54:38;;;;;;;188.05;85.85;;;4.70;99.90;;;;;;5116371;28;20046;-71
2022/11/13 03:57:23;;;;;;;173.55;83.60;;;4.70;99.90;;;;;;5116431;28;20038;-71
2022/11/13 04:00:08;;;;;;;171.57;84.45;;;4.70;99.90;;;;;;5116182;28;20058;-70
2022/11/13 04:02:53;;;;;;;336.63;111.50;;;4.90;99.90;;;;;;5115983;28;20047;-71
2022/11/13 04:05:38;;;;;;;228.48;91.20;;;4.70;99.90;;;;;;5116049;28;20511;-71
2022/11/13 04:08:22;;;;;;;220.05;95.88;;;4.60;99.90;;;;;;5116234;28;20043;-71
2022/11/13 04:11:09;;;;;;;189.38;88.88;;;4.60;99.90;;;;;;5095483;28;20576;-70
2022/11/13 04:13:53;;;;;;;219.35;97.63;;;4.80;99.90;;;;;;5095351;28;20093;-70
2022/11/13 04:16:38;;;;;;;192.38;91.90;;;4.60;99.90;;;;;;5095688;28;20440;-70
2022/11/13 04:19:23;;;;;;;285.75;108.25;;;4.50;99.90;;;;;;5095294;28;20062;-70
2022/11/13 04:22:07;;;;;;;231.18;98.80;;;4.30;99.90;;;;;;5095412;28;20039;-71
2022/11/13 04:24:52;;;;;;;167.35;83.97;;;4.30;99.90;;;;;;5095111;28;20132;-71
2022/11/13 04:27:37;;;;;;;145.70;75.63;;;4.30;99.90;;;;;;5095106;28;20074;-70
2022/11/13 04:30:21;;;;;;;182.75;89.25;;;4.50;99.90;;;;;;5095287;28;20524;-70
2022/11/13 04:33:06;;;;;;;131.65;71.00;;;4.60;99.90;;;;;;5095181;28;20042;-71
2022/11/13 04:35:50;;;;;;;119.30;65.82;;;4.70;99.90;;;;;;5095006;28;20396;-71
2022/11/13 04:38:35;;;;;;;121.13;66.68;;;4.70;99.90;;;;;;5095116;28;20108;-71
2022/11/13 04:44:23;;;;;;;174.32;83.20;;;4.60;99.90;;;;;;5094883;28;20065;-71
2022/11/13 04:47:08;;;;;;;140.20;73.15;;;4.50;99.90;;;;;;5095129;28;20042;-71
2022/11/13 04:49:52;;;;;;;137.18;73.25;;;4.50;99.90;;;;;;5094845;28;20043;-70
2022/11/13 04:52:37;;;;;;;139.18;77.18;;;4.30;99.90;;;;;;5094879;28;20047;-71
2022/11/13 04:55:21;;;;;;;170.68;82.13;;;4.20;99.90;;;;;;5094801;28;20047;-71
2022/11/13 04:58:06;;;;;;;237.10;94.97;;;4.30;99.90;;;;;;5094568;28;20039;-70
2022/11/13 05:00:51;;;;;;;192.70;87.20;;;4.20;99.90;;;;;;5094571;28;20587;-70
2022/11/13 05:03:36;;;;;;;161.80;80.82;;;4.40;99.90;;;;;;5094713;28;20047;-71
2022/11/13 05:06:21;;;;;;;223.43;97.15;;;4.40;99.90;;;;;;5094862;28;20046;-71
2022/11/13 05:09:06;;;;;;;173.55;84.63;;;4.30;99.90;;;;;;5099599;28;20042;-70
2022/11/13 05:11:50;;;;;;;169.18;81.00;;;4.20;99.90;;;;;;5115125;28;20123;-70
2022/11/13 05:14:36;;;;;;;170.02;85.22;;;4.30;99.90;;;;;;5099579;28;20113;-70
2022/11/13 05:17:22;;;;;;;245.85;107.15;;;4.50;99.90;;;;;;5115291;28;20553;-70
2022/11/13 05:20:07;;;;;;;247.63;99.75;;;4.40;99.90;;;;;;5115223;28;20047;-70
2022/11/13 05:22:51;;;;;;;178.48;88.05;;;4.30;99.90;;;;;;5115092;28;20042;-71
2022/11/13 05:25:36;;;;;;;164.98;80.40;;;4.10;99.90;;;;;;5115005;28;20042;-70
2022/11/13 05:28:20;;;;;;;163.18;81.40;;;4.30;99.90;;;;;;5115132;28;20137;-71
2022/11/13 05:31:14;;;;;;;197.13;92.18;;;4.60;99.90;;;;;;5115119;28;20400;-70
2022/11/13 05:33:58;;;;;;;236.02;105.50;;;4.70;99.90;;;;;;5115104;28;20119;-71
2022/11/13 05:36:43;;;;;;;382.45;120.30;;;4.40;99.90;;;;;;5115107;28;20035;-70
2022/11/13 05:39:28;;;;;;;273.83;105.03;;;4.10;99.90;;;;;;5114843;28;20084;-70
2022/11/13 05:42:12;;;;;;;241.10;101.03;;;4.20;99.90;;;;;;5115020;28;20039;-70
2022/11/13 05:44:57;;;;;;;187.30;87.10;;;4.20;99.90;;;;;;5114761;28;20050;-70
2022/11/13 05:47:42;;;;;;;192.40;90.80;;;4.40;99.90;;;;;;5115003;28;20385;-70
2022/11/13 05:50:26;;;;;;;154.50;75.47;;;4.20;99.90;;;;;;5114620;28;20086;-71
2022/11/13 05:53:11;;;;;;;156.43;73.30;;;4.40;99.90;;;;;;5099351;28;20098;-70
2022/11/13 05:56:00;;;;;;;156.65;73.47;;;4.40;99.90;;;;;;5118479;28;20039;-70
2022/11/13 05:58:46;;;;;;;135.98;64.15;;;4.40;99.90;;;;;;5118625;28;20051;-70
2022/11/13 06:01:33;;;;;;;137.75;66.72;;;4.30;99.90;;;;;;5118629;28;20050;-70
2022/11/13 06:04:17;;;;;;;158.73;67.40;;;4.10;99.90;;;;;;5118661;28;20115;-70
2022/11/13 06:07:02;;;;;;;220.02;78.00;;;4.10;99.90;;;;;;5118370;28;20128;-71
2022/11/13 06:09:46;;;;;;;262.40;85.50;;;4.10;99.90;;;;;;5102718;28;20560;-71
2022/11/13 06:12:31;;;;;;;164.15;72.22;;;4.00;99.90;;;;;;5118225;28;20034;-70
2022/11/13 06:15:16;;;;;;;128.88;64.75;;;4.10;99.90;;;;;;5118083;28;20038;-70
2022/11/13 06:18:00;;;;;;;157.05;76.50;;;4.20;99.90;;;;;;5118209;28;20034;-70
2022/11/13 06:20:45;;;;;;;152.07;73.28;;;4.20;99.90;;;;;;5118399;28;20500;-70
2022/11/13 06:23:33;;;;;;;186.15;75.35;;;4.30;99.90;;;;;;5118090;28;20092;-70
2022/11/13 06:26:24;;;;;;;240.65;78.30;;;4.10;99.90;;;;;;5118038;28;20089;-70
2022/11/13 06:29:11;;;;;;;167.73;71.05;;;4.30;99.90;;;;;;5118179;28;20045;-70
2022/11/13 06:31:56;;;;;;;226.38;78.32;;;4.20;99.90;;;;;;5117938;28;20061;-70
2022/11/13 06:34:40;;;;;;;365.25;90.20;;;4.10;99.90;;;;;;5117820;28;20046;-70
2022/11/13 06:37:25;;;;;;;183.20;71.22;;;4.20;99.90;;;;;;5117879;28;20670;-70
2022/11/13 06:40:10;;;;;;;190.82;70.90;;;4.20;99.90;;;;;;5117656;28;20392;-70
2022/11/13 06:42:54;;;;;;;198.55;68.55;;;4.30;99.90;;;;;;5117604;28;20038;-70
2022/11/13 06:45:39;;;;;;;273.20;78.13;;;4.30;99.90;;;;;;5117681;28;20380;-70
2022/11/13 06:48:24;;;;;;;169.68;63.20;;;4.20;99.90;;;;;;5117478;28;20060;-70
2022/11/13 06:51:15;;;;;;;157.82;66.35;;;4.30;99.90;;;;;;5117753;28;20046;-71
2022/11/13 06:54:00;;;;;;;150.90;64.15;;;4.30;99.90;;;;;;5117598;28;20050;-70
2022/11/13 06:56:45;;;;;;;261.05;84.10;;;4.40;99.90;;;;;;5117614;28;20092;-70
2022/11/13 06:59:29;;;;;;;177.68;67.88;;;4.30;99.90;;;;;;5117198;28;20462;-70
2022/11/13 07:02:14;;;;;;;180.27;76.53;;;4.30;99.90;;;;;;5117347;28;20078;-71
2022/11/13 07:04:59;;;;;;;274.52;85.88;;;4.20;99.90;;;;;;5101777;28;20175;-70
2022/11/13 07:07:43;;;;;;;170.68;68.20;;;4.40;99.90;;;;;;5101846;28;20173;-70
2022/11/13 07:10:28;;;;;;;149.65;65.28;;;4.50;99.90;;;;;;5101775;28;20141;-70
2022/11/13 07:13:12;;;;;;;140.10;67.78;;;4.80;99.90;;;;;;5117347;28;20099;-71
2022/11/13 07:16:02;;;;;;;139.57;66.80;;;5.00;99.90;;;;;;5117184;28;20126;-71
2022/11/13 07:18:52;;;;;;;143.77;63.67;;;5.20;99.90;;;;;;5117230;28;20268;-71
2022/11/13 07:21:36;;;;;;;159.93;68.30;;;5.30;99.90;;;;;;5117219;28;20046;-71
2022/11/13 07:24:20;;;;;;;155.48;68.95;;;5.50;99.90;;;;;;5116845;28;20034;-71
2022/11/13 07:27:05;;;;;;;169.80;71.95;;;5.50;99.90;;;;;;5117067;28;20107;-70
2022/11/13 07:29:50;;;;;;;154.05;68.03;;;5.40;99.90;;;;;;5116643;28;20408;-71
2022/11/13 07:32:34;;;;;;;168.90;71.38;;;5.50;99.90;;;;;;5116812;28;20034;-71
2022/11/13 07:35:19;;;;;;;167.23;71.38;;;5.40;99.90;;;;;;5101096;28;20042;-71
2022/11/13 07:38:04;;;;;;;160.75;70.40;;;5.40;99.90;;;;;;5116911;28;20361;-71
2022/11/13 07:40:49;;;;;;;155.20;70.95;;;5.40;99.90;;;;;;5116838;28;20038;-71
2022/11/13 07:43:34;;;;;;;167.65;68.55;;;5.50;99.90;;;;;;5116535;28;20046;-71
2022/11/13 07:46:19;;;;;;;186.00;72.43;;;5.70;99.90;;;;;;5116515;28;20088;-71
2022/11/13 07:49:04;;;;;;;192.80;78.50;;;5.80;99.90;;;;;;5116413;28;20046;-71
2022/11/13 07:51:48;;;;;;;204.73;77.30;;;6.00;99.90;;;;;;5116493;28;20458;-71
2022/11/13 07:54:33;;;;;;;218.60;80.97;;;6.00;99.90;;;;;;5116246;28;20084;-71
2022/11/13 07:57:19;;;;;;;234.48;80.93;;;5.90;99.90;;;;;;5116196;28;20031;-71
2022/11/13 08:00:04;;;;;;;221.52;82.15;;;6.00;99.90;;;;;;5115984;28;20110;-71
2022/11/13 08:02:49;;;;;;;229.43;83.43;;;6.00;99.90;;;;;;5116149;28;20039;-71
2022/11/13 08:05:34;;;;;;;242.30;79.60;;;6.20;99.90;;;;;;5100896;28;20055;-71
2022/11/13 08:08:18;;;;;;;242.85;85.82;;;6.30;99.90;;;;;;5115949;28;20054;-71
2022/11/13 08:11:07;;;;;;;241.30;84.13;;;6.30;99.90;;;;;;5095810;28;20043;-71
2022/11/13 08:13:52;;;;;;;254.15;85.72;;;6.40;99.90;;;;;;5095353;28;20157;-71
2022/11/13 08:16:37;;;;;;;263.30;86.38;;;6.50;99.90;;;;;;5095386;28;20039;-71
2022/11/13 08:19:21;;;;;;;257.00;87.78;;;6.60;99.90;;;;;;5095329;28;20550;-71
2022/11/13 08:22:06;;;;;;;267.67;86.70;;;6.70;99.90;;;;;;5095421;28;20043;-71
2022/11/13 08:24:52;;;;;;;262.00;88.60;;;6.70;99.90;;;;;;5095735;28;20047;-71
2022/11/13 08:27:37;;;;;;;310.88;90.55;;;6.80;99.90;;;;;;5095191;28;20042;-71
2022/11/13 08:30:22;;;;;;;255.50;85.10;;;6.90;99.90;;;;;;5095525;28;20043;-71
2022/11/13 08:33:07;;;;;;;261.95;88.88;;;6.70;99.90;;;;;;5095122;28;20396;-71
2022/11/13 08:35:57;;;;;;;265.23;84.63;;;7.00;99.90;;;;;;5095070;28;20086;-71
2022/11/13 08:38:41;;;;;;;255.38;89.05;;;7.20;99.90;;;;;;5095034;28;20039;-71
2022/11/13 08:41:25;;;;;;;285.90;90.70;;;7.20;99.90;;;;;;5095204;28;20124;-71
2022/11/13 08:44:11;;;;;;;302.73;98.75;;;7.40;99.90;;;;;;5095005;28;20043;-71
2022/11/13 08:46:56;;;;;;;317.65;100.68;;;7.50;99.90;;;;;;5094899;28;20039;-71
2022/11/13 08:49:41;;;;;;;347.40;107.68;;;7.50;99.90;;;;;;5094946;28;20151;-71
2022/11/13 08:52:25;;;;;;;327.98;102.53;;;7.60;99.90;;;;;;5095023;28;20401;-71
2022/11/13 08:55:10;;;;;;;362.13;113.00;;;7.70;99.90;;;;;;5094908;28;20443;-72
2022/11/13 08:58:01;;;;;;;414.75;122.45;;;7.80;99.90;;;;;;5094744;28;20039;-72
2022/11/13 09:00:45;;;;;;;379.75;121.70;;;7.90;99.90;;;;;;5094970;28;20079;-72
2022/11/13 09:03:30;;;;;;;359.45;119.47;;;8.10;99.90;;;;;;5094694;28;20562;-71
2022/11/13 09:06:15;;;;;;;314.85;105.13;;;8.20;99.90;;;;;;5094880;28;20405;-71
2022/11/13 09:09:00;;;;;;;354.20;117.97;;;8.20;99.90;;;;;;5098285;28;20038;-72
2022/11/13 09:11:44;;;;;;;340.88;113.15;;;8.20;99.90;;;;;;5099570;28;20051;-72
2022/11/13 09:14:29;;;;;;;309.95;104.35;;;8.20;99.90;;;;;;5115007;28;20096;-71
2022/11/13 09:17:13;;;;;;;274.15;93.97;;;8.20;99.90;;;;;;5099594;28;20351;-72
2022/11/13 09:19:58;;;;;;;278.73;93.45;;;8.30;99.90;;;;;;5115277;28;20042;-72
2022/11/13 09:22:43;;;;;;;286.13;98.50;;;8.20;99.90;;;;;;5114915;28;20035;-72
2022/11/13 09:25:29;;;;;;;292.13;98.97;;;8.20;99.90;;;;;;5099415;28;20480;-72
2022/11/13 09:28:13;;;;;;;293.50;96.63;;;8.40;99.90;;;;;;5114866;28;20035;-72
2022/11/13 09:30:58;;;;;;;270.83;93.05;;;8.40;99.90;;;;;;5118967;28;20043;-72
2022/11/13 09:33:42;;;;;;;268.77;93.47;;;8.70;99.90;;;;;;5103472;28;20039;-72
2022/11/13 09:36:27;;;;;;;248.90;88.57;;;9.00;99.90;;;;;;5118959;28;20097;-72
2022/11/13 09:39:12;;;;;;;267.25;91.15;;;9.30;99.90;;;;;;5119006;28;20088;-72
2022/11/13 09:42:21;;;;;;;259.23;94.43;;;9.70;99.90;;;;;;5118768;28;20088;-71
2022/11/13 09:45:11;;;;;;;261.75;95.18;;;10.50;99.90;;;;;;5118777;28;20123;-72
2022/11/13 09:48:03;;;;;;;250.63;91.78;;;11.70;99.90;;;;;;5118833;28;20050;-72
2022/11/13 09:50:47;;;;;;;272.77;92.82;;;12.20;99.90;;;;;;5118599;28;20046;-72
2022/11/13 09:53:35;;;;;;;253.02;93.50;;;13.10;99.90;;;;;;5118568;28;20035;-72
2022/11/13 09:57:04;;;;;;;234.60;92.22;;;13.50;97.60;;;;;;5118808;28;20121;-72
2022/11/13 09:59:56;;;;;;;236.18;89.63;;;14.50;94.70;;;;;;5015358;28;20060;-72
2022/11/13 10:02:55;;;;;;;234.90;89.00;;;15.40;93.00;;;;;;5015723;28;20076;-72
2022/11/13 10:06:06;;;;;;;256.95;95.90;;;16.00;90.50;;;;;;5015563;28;20045;-72
2022/11/13 10:08:56;;;;;;;221.55;86.53;;;16.40;87.00;;;;;;5015327;28;20522;-72
2022/11/13 10:11:50;;;;;;;203.15;82.15;;;16.90;82.80;;;;;;5015489;28;20562;-73
2022/11/13 10:14:44;;;;;;;221.70;83.38;;;17.40;78.20;;;;;;5015149;28;20069;-73
2022/11/13 10:17:47;;;;;;;214.73;86.50;;;17.30;77.60;;;;;;5015531;28;20491;-73
2022/11/13 10:20:47;;;;;;;226.98;85.50;;;16.70;78.90;;;;;;5015258;28;20135;-73
2022/11/13 10:23:36;;;;;;;224.55;88.30;;;16.70;81.00;;;;;;5015227;28;20506;-73
2022/11/13 10:26:23;;;;;;;222.35;88.30;;;17.30;78.40;;;;;;5015045;28;20040;-73
2022/11/13 10:29:14;;;;;;;233.82;90.53;;;16.60;78.90;;;;;;5015222;28;20041;-73
2022/11/13 10:31:59;;;;;;;233.65;93.30;;;17.60;79.10;;;;;;5015144;28;20398;-73
2022/11/13 10:34:59;;;;;;;219.68;86.57;;;18.20;78.00;;;;;;5117704;28;20077;-73
2022/11/13 10:38:04;;;;;;;204.35;80.35;;;18.90;73.80;;;;;;5118023;28;20051;-73
2022/11/13 10:40:48;;;;;;;201.15;80.40;;;19.40;69.50;;;;;;5101153;28;20394;-73
2022/11/13 10:43:33;;;;;;;195.90;79.63;;;19.70;68.10;;;;;;5117677;28;20039;-73
2022/11/13 10:46:24;;;;;;;194.93;77.40;;;20.00;64.30;;;;;;5117658;28;20598;-74
2022/11/13 10:49:11;;;;;;;;;;;19.50;63.80;;;;;;5117887;28;20038;-74
2022/11/13 10:51:58;;;;;;;161.43;67.07;;;19.80;63.20;;;;;;5117974;28;19953;-74
2022/11/13 10:54:42;;;;;;;148.50;63.83;;;19.90;62.80;;;;;;5117568;28;20047;-74
2022/11/13 10:57:33;;;;;;;145.55;62.72;;;20.00;62.50;;;;;;5117310;28;20077;-74
2022/11/13 11:00:34;;;;;;;154.05;63.35;;;20.40;62.60;;;;;;5117285;28;20173;-74
2022/11/13 11:03:24;;;;;;;129.30;57.22;;;20.70;59.00;;;;;;5117294;28;20042;-74
2022/11/13 11:06:09;;;;;;;128.80;54.78;;;21.00;58.70;;;;;;5117483;28;20364;-75
2022/11/13 11:09:05;;;;;;;113.13;50.47;;;20.90;59.90;;;;;;5117042;28;20114;-75
2022/11/13 11:12:26;;;;;;;109.40;48.42;;;21.50;58.20;;;;;;5117145;28;20043;-75
2022/11/13 11:15:53;;;;;;;130.30;54.88;;;22.10;56.70;;;;;;5014156;28;20041;-75
2022/11/13 11:19:03;;;;;;;167.20;62.92;;;22.30;54.50;;;;;;4992547;28;20052;-74
2022/11/13 11:21:51;;;;;;;269.90;96.43;;;22.20;55.50;;;;;;5000482;28;20045;-75
2022/11/13 11:24:50;;;;;;;274.13;96.90;;;22.10;55.60;;;;;;5000516;28;20559;-75
2022/11/13 11:27:45;;;;;;;245.35;86.78;;;22.50;53.60;;;;;;5014017;28;20126;-75
2022/11/13 11:30:42;;;;;;;268.20;97.90;;;22.40;54.80;;;;;;5013883;28;20048;-75
2022/11/13 11:33:36;;;;;;;239.10;88.63;;;22.10;54.10;;;;;;5013962;28;20077;-75
2022/11/13 11:36:45;;;;;;;225.25;83.53;;;22.50;54.60;;;;;;5013806;28;20044;-76
2022/11/13 11:39:50;;;;;;;219.00;84.30;;;22.80;52.00;;;;;;5013902;28;20045;-76
2022/11/13 11:43:01;;;;;;;156.73;65.82;;;21.80;54.30;;;;;;5013638;28;20502;-75
2022/11/13 11:45:47;;;;;;;171.05;68.10;;;22.80;52.00;;;;;;5006589;28;20552;-75
2022/11/13 11:48:32;;;;;;;167.57;66.80;;;22.60;51.50;;;;;;5048688;28;20114;-76
2022/11/13 11:51:30;;;;;;;136.05;56.17;;;21.10;54.20;;;;;;5115959;28;20046;-75
2022/11/13 11:54:42;;;;;;;139.82;57.42;;;21.20;54.70;;;;;;5116295;28;21918;-75
2022/11/13 11:57:39;;;;;;;138.63;58.72;;;21.40;54.80;;;;;;5116273;28;20085;-75
2022/11/13 12:00:24;;;;;;;163.80;66.85;;;21.70;53.60;;;;;;5115806;28;20054;-75
2022/11/13 12:03:11;;;;;;;158.65;68.65;;;21.70;53.70;;;;;;5116054;28;20042;-76
2022/11/13 12:06:12;;;;;;;160.80;69.30;;;21.70;54.50;;;;;;5109883;28;20093;-76
2022/11/13 12:08:59;;;;;;;;;;;21.90;54.80;;;;;;5119442;27;20030;-75
2022/11/13 12:12:15;;;;;;;125.85;58.58;;;22.30;53.20;;;;;;5136387;27;19923;-76
2022/11/13 12:15:09;;;;;;;122.72;56.50;;;22.40;51.70;;;;;;5136210;27;20088;-76
2022/11/13 12:18:28;;;;;;;116.95;53.95;;;22.30;53.90;;;;;;5136630;27;20418;-76
2022/11/13 12:21:26;;;;;;;110.38;52.08;;;22.30;51.10;;;;;;5136428;27;20038;-76
2022/11/13 12:24:19;;;;;;;94.43;46.50;;;22.50;51.50;;;;;;5136316;27;20577;-76
2022/11/13 12:27:16;;;;;;;82.25;41.28;;;22.30;51.10;;;;;;5136278;27;20104;-76
2022/11/13 12:30:13;;;;;;;91.35;43.50;;;22.20;51.80;;;;;;5136075;27;20033;-76
2022/11/13 12:33:46;;;;;;;83.32;40.08;;;22.30;50.80;;;;;;5136116;27;20038;-76
2022/11/13 12:36:31;;;;;;;83.40;40.53;;;22.00;50.60;;;;;;5136006;27;20420;-76
2022/11/13 12:39:35;;;;;;;74.45;40.85;;;21.60;52.30;;;;;;5136222;27;20045;-76
2022/11/13 12:42:36;;;;;;;81.55;42.13;;;21.60;54.30;;;;;;5136030;27;20039;-76
2022/11/13 12:45:24;;;;;;;69.82;37.13;;;21.60;52.90;;;;;;5135903;27;20503;-76
2022/11/13 12:48:20;;;;;;;59.63;34.47;;;21.70;53.70;;;;;;5135705;27;20062;-76
2022/11/13 12:51:08;;;;;;;66.65;36.58;;;21.60;53.50;;;;;;5135864;27;20061;-76
2022/11/13 12:53:54;;;;;;;58.78;35.95;;;21.40;53.80;;;;;;5135751;27;20045;-76
2022/11/13 12:56:39;;;;;;;52.47;30.25;;;21.90;53.10;;;;;;5135875;27;20050;-76
2022/11/13 12:59:32;;;;;;;52.17;31.92;;;22.10;52.60;;;;;;5135544;27;20546;-76
2022/11/13 13:02:27;;;;;;;50.97;29.65;;;22.10;51.90;;;;;;5135523;27;20384;-76
2022/11/13 13:05:31;;;;;;;49.03;30.45;;;22.20;51.60;;;;;;5135572;27;20078;-76
2022/11/13 13:08:41;;;;;;;50.63;29.83;;;21.60;52.40;;;;;;5135751;28;20069;-76
2022/11/13 13:12:01;;;;;;;51.60;29.58;;;21.20;54.10;;;;;;5094902;28;20046;-76
2022/11/13 13:14:55;;;;;;;51.50;30.20;;;21.30;53.20;;;;;;5094469;28;20504;-76
2022/11/13 13:17:40;;;;;;;46.88;29.55;;;20.70;54.40;;;;;;5094420;28;20259;-76
2022/11/13 13:20:44;;;;;;;54.22;29.90;;;20.50;54.60;;;;;;5094458;28;20537;-76
2022/11/13 13:23:38;;;;;;;44.80;27.27;;;20.50;55.80;;;;;;5094631;28;20447;-76
2022/11/13 13:26:24;;;;;;;41.22;26.77;;;20.20;55.00;;;;;;5094349;28;20070;-75
2022/11/13 13:29:28;;;;;;;40.17;27.30;;;19.60;56.60;;;;;;5094720;28;20031;-75
2022/11/13 13:32:30;;;;;;;41.35;28.20;;;19.50;55.60;;;;;;5094785;28;20242;-75
2022/11/13 13:35:28;;;;;;;50.08;31.38;;;18.60;58.20;;;;;;5094261;28;20092;-75
2022/11/13 13:38:31;;;;;;;43.85;28.15;;;17.80;60.60;;;;;;5094367;28;20464;-75
2022/11/13 13:41:33;;;;;;;38.55;26.55;;;17.20;62.10;;;;;;5094451;28;20039;-74
2022/11/13 13:44:44;;;;;;;43.28;27.80;;;16.90;63.90;;;;;;5094485;28;20034;-74
2022/11/13 13:47:38;;;;;;;41.85;26.35;;;16.60;65.30;;;;;;5094250;28;20186;-74
2022/11/13 13:50:37;;;;;;;51.15;31.73;;;16.30;67.00;;;;;;5094159;28;20043;-74
2022/11/13 13:53:26;;;;;;;49.10;32.55;;;16.40;67.00;;;;;;5093893;28;20115;-74
2022/11/13 13:56:13;;;;;;;57.15;35.47;;;16.10;67.70;;;;;;5093923;28;20122;-74
2022/11/13 13:58:58;;;;;;;59.17;37.03;;;16.00;68.10;;;;;;5094180;28;20055;-74
2022/11/13 14:01:54;;;;;;;53.72;35.53;;;15.60;70.30;;;;;;5094425;28;20078;-74
2022/11/13 14:04:47;;;;;;;59.97;35.97;;;15.60;70.20;;;;;;5094208;28;20532;-74
2022/11/13 14:07:34;;;;;;;56.47;35.67;;;15.20;72.60;;;;;;5094158;28;20039;-73
2022/11/13 14:10:24;;;;;;;66.10;38.70;;;15.40;72.20;;;;;;5109126;28;20042;-73
2022/11/13 14:13:13;;;;;;;59.50;38.58;;;15.40;73.80;;;;;;5114669;28;20454;-74
2022/11/13 14:16:00;;;;;;;56.25;36.83;;;15.30;73.80;;;;;;5117178;28;20046;-74